sensor_id;sensor_type;location;lat;lon;timestamp;P1;durP1;ratioP1;P2;durP2;ratioP2
6513;SDS011;3290;47.716;9.070;2023-06-22T00:02:22;10.93;;;6.20;;
6513;SDS011;3290;47.716;9.070;2023-06-22T00:04:47;20.23;;;7.40;;
6513;SDS011;3290;47.716;9.070;2023-06-22T00:07:12;16.77;;;6.97;;
6513;SDS011;3290;47.716;9.070;2023-06-22T00:09:38;33.67;;;8.57;;
6513;SDS011;3290;47.716;9.070;2023-06-22T00:12:03;16.43;;;7.20;;
6513;SDS011;3290;47.716;9.070;2023-06-22T00:14:29;15.47;;;7.47;;
6513;SDS011;3290;47.716;9.070;2023-06-22T00:16:54;13.53;;;5.77;;
6513;SDS011;3290;47.716;9.070;2023-06-22T00:19:22;9.73;;;6.17;;
6513;SDS011;3290;47.716;9.070;2023-06-22T00:21:48;21.43;;;7.10;;
6513;SDS011;3290;47.716;9.070;2023-06-22T00:24:18;13.40;;;6.87;;
6513;SDS011;3290;47.716;9.070;2023-06-22T00:26:47;12.07;;;6.57;;
6513;SDS011;3290;47.716;9.070;2023-06-22T00:29:13;21.13;;;8.60;;
6513;SDS011;3290;47.716;9.070;2023-06-22T00:31:39;17.10;;;7.03;;
6513;SDS011;3290;47.716;9.070;2023-06-22T00:34:04;10.37;;;6.77;;
6513;SDS011;3290;47.716;9.070;2023-06-22T00:36:34;19.60;;;8.07;;
6513;SDS011;3290;47.716;9.070;2023-06-22T00:38:59;15.00;;;6.50;;
6513;SDS011;3290;47.716;9.070;2023-06-22T00:41:25;16.73;;;6.73;;
6513;SDS011;3290;47.716;9.070;2023-06-22T00:43:53;14.43;;;6.70;;
6513;SDS011;3290;47.716;9.070;2023-06-22T00:46:19;12.80;;;6.17;;
6513;SDS011;3290;47.716;9.070;2023-06-22T00:48:44;11.03;;;6.20;;
6513;SDS011;3290;47.716;9.070;2023-06-22T00:51:10;8.00;;;6.67;;
6513;SDS011;3290;47.716;9.070;2023-06-22T00:53:35;10.17;;;6.37;;
6513;SDS011;3290;47.716;9.070;2023-06-22T00:56:02;20.77;;;7.07;;
6513;SDS011;3290;47.716;9.070;2023-06-22T00:58:28;10.53;;;6.53;;
6513;SDS011;3290;47.716;9.070;2023-06-22T01:00:54;18.83;;;8.17;;
6513;SDS011;3290;47.716;9.070;2023-06-22T01:03:20;9.57;;;5.97;;
6513;SDS011;3290;47.716;9.070;2023-06-22T01:05:45;9.73;;;6.13;;
6513;SDS011;3290;47.716;9.070;2023-06-22T01:08:15;10.73;;;5.70;;
6513;SDS011;3290;47.716;9.070;2023-06-22T01:10:47;11.57;;;6.20;;
6513;SDS011;3290;47.716;9.070;2023-06-22T01:13:31;11.17;;;6.50;;
6513;SDS011;3290;47.716;9.070;2023-06-22T01:16:30;15.33;;;6.60;;
6513;SDS011;3290;47.716;9.070;2023-06-22T01:18:58;9.83;;;5.97;;
6513;SDS011;3290;47.716;9.070;2023-06-22T01:21:29;14.97;;;7.03;;
6513;SDS011;3290;47.716;9.070;2023-06-22T01:24:15;15.20;;;7.50;;
6513;SDS011;3290;47.716;9.070;2023-06-22T01:29:24;9.60;;;6.60;;
6513;SDS011;3290;47.716;9.070;2023-06-22T01:31:51;15.07;;;6.37;;
6513;SDS011;3290;47.716;9.070;2023-06-22T01:34:19;11.87;;;6.47;;
6513;SDS011;3290;47.716;9.070;2023-06-22T01:36:46;11.47;;;6.10;;
6513;SDS011;3290;47.716;9.070;2023-06-22T01:39:12;16.33;;;6.50;;
6513;SDS011;3290;47.716;9.070;2023-06-22T01:41:38;12.40;;;6.73;;
6513;SDS011;3290;47.716;9.070;2023-06-22T01:44:07;13.33;;;6.77;;
6513;SDS011;3290;47.716;9.070;2023-06-22T01:46:34;12.27;;;6.13;;
6513;SDS011;3290;47.716;9.070;2023-06-22T01:49:02;17.13;;;6.50;;
6513;SDS011;3290;47.716;9.070;2023-06-22T01:51:29;9.67;;;6.23;;
6513;SDS011;3290;47.716;9.070;2023-06-22T01:53:54;13.10;;;7.03;;
6513;SDS011;3290;47.716;9.070;2023-06-22T01:56:19;12.10;;;6.73;;
6513;SDS011;3290;47.716;9.070;2023-06-22T01:58:50;10.47;;;6.23;;
6513;SDS011;3290;47.716;9.070;2023-06-22T02:01:24;11.17;;;6.30;;
6513;SDS011;3290;47.716;9.070;2023-06-22T02:04:06;11.33;;;6.90;;
6513;SDS011;3290;47.716;9.070;2023-06-22T02:06:39;19.53;;;6.83;;
6513;SDS011;3290;47.716;9.070;2023-06-22T02:09:15;16.43;;;8.20;;
6513;SDS011;3290;47.716;9.070;2023-06-22T02:11:42;19.10;;;6.57;;
6513;SDS011;3290;47.716;9.070;2023-06-22T02:14:10;12.00;;;7.03;;
6513;SDS011;3290;47.716;9.070;2023-06-22T02:16:37;17.47;;;8.13;;
6513;SDS011;3290;47.716;9.070;2023-06-22T02:19:02;16.63;;;6.30;;
6513;SDS011;3290;47.716;9.070;2023-06-22T02:21:28;10.70;;;5.83;;
6513;SDS011;3290;47.716;9.070;2023-06-22T02:23:55;11.33;;;6.57;;
6513;SDS011;3290;47.716;9.070;2023-06-22T02:26:20;9.87;;;5.50;;
6513;SDS011;3290;47.716;9.070;2023-06-22T02:28:46;11.40;;;7.43;;
6513;SDS011;3290;47.716;9.070;2023-06-22T02:31:11;14.27;;;7.20;;
6513;SDS011;3290;47.716;9.070;2023-06-22T02:33:37;25.63;;;7.03;;
6513;SDS011;3290;47.716;9.070;2023-06-22T02:36:02;9.10;;;6.03;;
6513;SDS011;3290;47.716;9.070;2023-06-22T02:38:30;13.37;;;5.90;;
6513;SDS011;3290;47.716;9.070;2023-06-22T02:40:59;9.50;;;5.87;;
6513;SDS011;3290;47.716;9.070;2023-06-22T02:43:25;14.10;;;6.83;;
6513;SDS011;3290;47.716;9.070;2023-06-22T02:45:50;16.77;;;5.87;;
6513;SDS011;3290;47.716;9.070;2023-06-22T02:48:16;11.27;;;5.57;;
6513;SDS011;3290;47.716;9.070;2023-06-22T02:50:41;17.37;;;7.10;;
6513;SDS011;3290;47.716;9.070;2023-06-22T02:53:07;14.63;;;6.53;;
6513;SDS011;3290;47.716;9.070;2023-06-22T02:55:32;16.67;;;6.20;;
6513;SDS011;3290;47.716;9.070;2023-06-22T02:57:57;16.73;;;7.20;;
6513;SDS011;3290;47.716;9.070;2023-06-22T03:00:24;12.50;;;5.30;;
6513;SDS011;3290;47.716;9.070;2023-06-22T03:02:55;15.67;;;6.07;;
6513;SDS011;3290;47.716;9.070;2023-06-22T03:05:21;13.17;;;5.70;;
6513;SDS011;3290;47.716;9.070;2023-06-22T03:07:46;12.87;;;6.10;;
6513;SDS011;3290;47.716;9.070;2023-06-22T03:10:12;8.77;;;5.80;;
6513;SDS011;3290;47.716;9.070;2023-06-22T03:12:39;13.50;;;6.97;;
6513;SDS011;3290;47.716;9.070;2023-06-22T03:15:06;16.33;;;7.20;;
6513;SDS011;3290;47.716;9.070;2023-06-22T03:17:32;20.57;;;6.13;;
6513;SDS011;3290;47.716;9.070;2023-06-22T03:20:02;13.73;;;6.20;;
6513;SDS011;3290;47.716;9.070;2023-06-22T03:22:36;11.80;;;5.80;;
6513;SDS011;3290;47.716;9.070;2023-06-22T03:25:02;16.53;;;7.00;;
6513;SDS011;3290;47.716;9.070;2023-06-22T03:27:27;16.00;;;7.90;;
6513;SDS011;3290;47.716;9.070;2023-06-22T03:29:53;9.30;;;5.90;;
6513;SDS011;3290;47.716;9.070;2023-06-22T03:32:18;11.00;;;7.40;;
6513;SDS011;3290;47.716;9.070;2023-06-22T03:34:43;14.33;;;6.43;;
6513;SDS011;3290;47.716;9.070;2023-06-22T03:37:12;10.90;;;6.23;;
6513;SDS011;3290;47.716;9.070;2023-06-22T03:39:38;11.93;;;6.40;;
6513;SDS011;3290;47.716;9.070;2023-06-22T03:42:04;8.57;;;6.70;;
6513;SDS011;3290;47.716;9.070;2023-06-22T03:44:29;11.07;;;5.60;;
6513;SDS011;3290;47.716;9.070;2023-06-22T03:46:55;12.97;;;6.40;;
6513;SDS011;3290;47.716;9.070;2023-06-22T03:49:20;19.23;;;6.20;;
6513;SDS011;3290;47.716;9.070;2023-06-22T03:51:45;12.83;;;5.73;;
6513;SDS011;3290;47.716;9.070;2023-06-22T03:54:11;9.10;;;6.37;;
6513;SDS011;3290;47.716;9.070;2023-06-22T03:56:36;13.97;;;6.40;;
6513;SDS011;3290;47.716;9.070;2023-06-22T03:59:03;7.53;;;5.67;;
6513;SDS011;3290;47.716;9.070;2023-06-22T04:01:28;11.07;;;6.40;;
6513;SDS011;3290;47.716;9.070;2023-06-22T04:03:54;10.73;;;6.30;;
6513;SDS011;3290;47.716;9.070;2023-06-22T04:06:19;12.33;;;6.60;;
6513;SDS011;3290;47.716;9.070;2023-06-22T04:08:45;14.83;;;7.13;;
6513;SDS011;3290;47.716;9.070;2023-06-22T04:11:15;18.80;;;7.80;;
6513;SDS011;3290;47.716;9.070;2023-06-22T04:13:41;16.77;;;7.43;;
6513;SDS011;3290;47.716;9.070;2023-06-22T04:16:06;14.90;;;6.40;;
6513;SDS011;3290;47.716;9.070;2023-06-22T04:18:31;9.30;;;5.80;;
6513;SDS011;3290;47.716;9.070;2023-06-22T04:20:57;12.83;;;6.60;;
6513;SDS011;3290;47.716;9.070;2023-06-22T04:23:22;12.47;;;6.90;;
6513;SDS011;3290;47.716;9.070;2023-06-22T04:25:47;11.73;;;6.67;;
6513;SDS011;3290;47.716;9.070;2023-06-22T04:28:13;13.07;;;5.93;;
6513;SDS011;3290;47.716;9.070;2023-06-22T04:30:38;19.03;;;7.00;;
6513;SDS011;3290;47.716;9.070;2023-06-22T04:33:11;16.07;;;6.47;;
6513;SDS011;3290;47.716;9.070;2023-06-22T04:35:40;14.00;;;7.03;;
6513;SDS011;3290;47.716;9.070;2023-06-22T04:38:06;18.43;;;7.17;;
6513;SDS011;3290;47.716;9.070;2023-06-22T04:40:32;12.50;;;7.23;;
6513;SDS011;3290;47.716;9.070;2023-06-22T04:42:57;12.00;;;7.10;;
6513;SDS011;3290;47.716;9.070;2023-06-22T04:45:22;14.07;;;6.63;;
6513;SDS011;3290;47.716;9.070;2023-06-22T04:47:48;11.80;;;6.77;;
6513;SDS011;3290;47.716;9.070;2023-06-22T04:50:13;14.30;;;6.70;;
6513;SDS011;3290;47.716;9.070;2023-06-22T04:52:39;16.67;;;6.70;;
6513;SDS011;3290;47.716;9.070;2023-06-22T04:55:05;10.73;;;6.30;;
6513;SDS011;3290;47.716;9.070;2023-06-22T04:57:31;11.17;;;7.20;;
6513;SDS011;3290;47.716;9.070;2023-06-22T04:59:59;14.00;;;8.13;;
6513;SDS011;3290;47.716;9.070;2023-06-22T05:02:36;16.53;;;7.40;;
6513;SDS011;3290;47.716;9.070;2023-06-22T05:05:04;9.90;;;6.37;;
6513;SDS011;3290;47.716;9.070;2023-06-22T05:07:32;15.57;;;7.73;;
6513;SDS011;3290;47.716;9.070;2023-06-22T05:09:58;15.13;;;7.83;;
6513;SDS011;3290;47.716;9.070;2023-06-22T05:12:24;17.73;;;8.20;;
6513;SDS011;3290;47.716;9.070;2023-06-22T05:14:49;13.27;;;7.30;;
6513;SDS011;3290;47.716;9.070;2023-06-22T05:17:15;12.90;;;7.07;;
6513;SDS011;3290;47.716;9.070;2023-06-22T05:19:44;22.27;;;8.07;;
6513;SDS011;3290;47.716;9.070;2023-06-22T05:22:13;21.93;;;7.23;;
6513;SDS011;3290;47.716;9.070;2023-06-22T05:24:39;15.23;;;7.70;;
6513;SDS011;3290;47.716;9.070;2023-06-22T05:27:04;11.63;;;7.13;;
6513;SDS011;3290;47.716;9.070;2023-06-22T05:29:30;14.20;;;7.33;;
6513;SDS011;3290;47.716;9.070;2023-06-22T05:31:56;28.10;;;8.00;;
6513;SDS011;3290;47.716;9.070;2023-06-22T05:34:21;16.87;;;6.80;;
6513;SDS011;3290;47.716;9.070;2023-06-22T05:36:46;11.87;;;6.13;;
6513;SDS011;3290;47.716;9.070;2023-06-22T05:39:12;18.63;;;7.10;;
6513;SDS011;3290;47.716;9.070;2023-06-22T05:41:38;15.23;;;8.20;;
6513;SDS011;3290;47.716;9.070;2023-06-22T05:44:04;16.07;;;6.93;;
6513;SDS011;3290;47.716;9.070;2023-06-22T05:46:29;13.57;;;7.53;;
6513;SDS011;3290;47.716;9.070;2023-06-22T05:48:55;15.83;;;7.20;;
6513;SDS011;3290;47.716;9.070;2023-06-22T05:51:20;11.63;;;6.77;;
6513;SDS011;3290;47.716;9.070;2023-06-22T05:53:45;13.53;;;7.13;;
6513;SDS011;3290;47.716;9.070;2023-06-22T05:56:14;24.60;;;7.07;;
6513;SDS011;3290;47.716;9.070;2023-06-22T05:58:40;13.73;;;6.60;;
6513;SDS011;3290;47.716;9.070;2023-06-22T06:01:05;13.60;;;6.00;;
6513;SDS011;3290;47.716;9.070;2023-06-22T06:03:30;16.80;;;6.87;;
6513;SDS011;3290;47.716;9.070;2023-06-22T06:05:56;11.53;;;6.73;;
6513;SDS011;3290;47.716;9.070;2023-06-22T06:08:21;11.53;;;6.50;;
6513;SDS011;3290;47.716;9.070;2023-06-22T06:10:47;12.97;;;6.17;;
6513;SDS011;3290;47.716;9.070;2023-06-22T06:13:12;14.97;;;6.83;;
6513;SDS011;3290;47.716;9.070;2023-06-22T06:15:37;10.63;;;6.73;;
6513;SDS011;3290;47.716;9.070;2023-06-22T06:18:03;13.13;;;6.97;;
6513;SDS011;3290;47.716;9.070;2023-06-22T06:20:30;8.90;;;7.10;;
6513;SDS011;3290;47.716;9.070;2023-06-22T06:22:56;14.20;;;6.87;;
6513;SDS011;3290;47.716;9.070;2023-06-22T06:25:21;13.17;;;6.60;;
6513;SDS011;3290;47.716;9.070;2023-06-22T06:27:48;12.87;;;7.10;;
6513;SDS011;3290;47.716;9.070;2023-06-22T06:30:15;11.30;;;6.97;;
6513;SDS011;3290;47.716;9.070;2023-06-22T06:32:41;12.40;;;6.50;;
6513;SDS011;3290;47.716;9.070;2023-06-22T06:35:08;20.40;;;7.57;;
6513;SDS011;3290;47.716;9.070;2023-06-22T06:37:36;12.10;;;6.67;;
6513;SDS011;3290;47.716;9.070;2023-06-22T06:40:05;13.73;;;7.10;;
6513;SDS011;3290;47.716;9.070;2023-06-22T06:42:35;14.40;;;7.47;;
6513;SDS011;3290;47.716;9.070;2023-06-22T06:45:07;16.07;;;7.33;;
6513;SDS011;3290;47.716;9.070;2023-06-22T06:47:33;15.97;;;8.10;;
6513;SDS011;3290;47.716;9.070;2023-06-22T06:49:59;18.23;;;8.10;;
6513;SDS011;3290;47.716;9.070;2023-06-22T06:52:25;14.87;;;7.40;;
6513;SDS011;3290;47.716;9.070;2023-06-22T06:54:51;18.27;;;8.00;;
6513;SDS011;3290;47.716;9.070;2023-06-22T06:57:17;16.43;;;7.73;;
6513;SDS011;3290;47.716;9.070;2023-06-22T06:59:43;13.00;;;7.57;;
6513;SDS011;3290;47.716;9.070;2023-06-22T07:02:08;14.40;;;8.10;;
6513;SDS011;3290;47.716;9.070;2023-06-22T07:04:34;13.43;;;6.77;;
6513;SDS011;3290;47.716;9.070;2023-06-22T07:07:00;19.37;;;7.70;;
6513;SDS011;3290;47.716;9.070;2023-06-22T07:09:27;18.43;;;8.07;;
6513;SDS011;3290;47.716;9.070;2023-06-22T07:11:52;17.33;;;8.10;;
6513;SDS011;3290;47.716;9.070;2023-06-22T07:14:17;21.40;;;8.30;;
6513;SDS011;3290;47.716;9.070;2023-06-22T07:16:43;10.67;;;6.73;;
6513;SDS011;3290;47.716;9.070;2023-06-22T07:19:10;10.10;;;7.50;;
6513;SDS011;3290;47.716;9.070;2023-06-22T07:21:36;15.30;;;7.57;;
6513;SDS011;3290;47.716;9.070;2023-06-22T07:24:02;11.97;;;7.90;;
6513;SDS011;3290;47.716;9.070;2023-06-22T07:26:27;14.77;;;8.00;;
6513;SDS011;3290;47.716;9.070;2023-06-22T07:28:53;18.97;;;8.70;;
6513;SDS011;3290;47.716;9.070;2023-06-22T07:31:18;17.23;;;7.90;;
6513;SDS011;3290;47.716;9.070;2023-06-22T07:33:43;15.13;;;9.33;;
6513;SDS011;3290;47.716;9.070;2023-06-22T07:36:09;16.17;;;8.07;;
6513;SDS011;3290;47.716;9.070;2023-06-22T07:38:34;16.13;;;8.00;;
6513;SDS011;3290;47.716;9.070;2023-06-22T07:41:02;25.97;;;8.27;;
6513;SDS011;3290;47.716;9.070;2023-06-22T07:43:30;16.77;;;7.80;;
6513;SDS011;3290;47.716;9.070;2023-06-22T07:45:58;13.30;;;6.70;;
6513;SDS011;3290;47.716;9.070;2023-06-22T07:48:23;11.67;;;6.63;;
6513;SDS011;3290;47.716;9.070;2023-06-22T07:50:48;14.20;;;8.60;;
6513;SDS011;3290;47.716;9.070;2023-06-22T07:53:14;13.63;;;7.40;;
6513;SDS011;3290;47.716;9.070;2023-06-22T07:55:40;18.50;;;8.60;;
6513;SDS011;3290;47.716;9.070;2023-06-22T07:58:05;13.27;;;7.50;;
6513;SDS011;3290;47.716;9.070;2023-06-22T08:00:31;14.50;;;7.83;;
6513;SDS011;3290;47.716;9.070;2023-06-22T08:02:58;14.10;;;7.73;;
6513;SDS011;3290;47.716;9.070;2023-06-22T08:05:23;14.33;;;7.57;;
6513;SDS011;3290;47.716;9.070;2023-06-22T08:07:49;18.03;;;7.63;;
6513;SDS011;3290;47.716;9.070;2023-06-22T08:10:15;16.53;;;8.53;;
6513;SDS011;3290;47.716;9.070;2023-06-22T08:12:41;9.57;;;7.00;;
6513;SDS011;3290;47.716;9.070;2023-06-22T08:15:06;14.13;;;7.70;;
6513;SDS011;3290;47.716;9.070;2023-06-22T08:17:32;21.20;;;8.40;;
6513;SDS011;3290;47.716;9.070;2023-06-22T08:19:58;15.00;;;7.60;;
6513;SDS011;3290;47.716;9.070;2023-06-22T08:22:24;13.17;;;7.20;;
6513;SDS011;3290;47.716;9.070;2023-06-22T08:24:49;19.73;;;6.90;;
6513;SDS011;3290;47.716;9.070;2023-06-22T08:27:14;14.73;;;7.90;;
6513;SDS011;3290;47.716;9.070;2023-06-22T08:29:41;16.83;;;8.07;;
6513;SDS011;3290;47.716;9.070;2023-06-22T08:32:10;12.77;;;7.20;;
6513;SDS011;3290;47.716;9.070;2023-06-22T08:34:36;18.30;;;8.33;;
6513;SDS011;3290;47.716;9.070;2023-06-22T08:37:02;17.87;;;7.70;;
6513;SDS011;3290;47.716;9.070;2023-06-22T08:39:31;11.50;;;7.17;;
6513;SDS011;3290;47.716;9.070;2023-06-22T08:41:57;14.83;;;8.43;;
6513;SDS011;3290;47.716;9.070;2023-06-22T08:44:22;11.90;;;7.80;;
6513;SDS011;3290;47.716;9.070;2023-06-22T08:46:47;16.37;;;8.53;;
6513;SDS011;3290;47.716;9.070;2023-06-22T08:49:13;17.33;;;8.10;;
6513;SDS011;3290;47.716;9.070;2023-06-22T08:51:38;15.43;;;7.70;;
6513;SDS011;3290;47.716;9.070;2023-06-22T08:54:04;24.47;;;9.17;;
6513;SDS011;3290;47.716;9.070;2023-06-22T08:56:29;22.23;;;8.10;;
6513;SDS011;3290;47.716;9.070;2023-06-22T08:58:55;14.03;;;8.07;;
6513;SDS011;3290;47.716;9.070;2023-06-22T09:01:21;19.00;;;8.70;;
6513;SDS011;3290;47.716;9.070;2023-06-22T09:03:47;15.77;;;9.23;;
6513;SDS011;3290;47.716;9.070;2023-06-22T09:06:19;14.83;;;7.57;;
6513;SDS011;3290;47.716;9.070;2023-06-22T09:08:45;17.13;;;8.47;;
6513;SDS011;3290;47.716;9.070;2023-06-22T09:11:11;19.20;;;8.53;;
6513;SDS011;3290;47.716;9.070;2023-06-22T09:13:36;14.63;;;8.63;;
6513;SDS011;3290;47.716;9.070;2023-06-22T09:16:02;16.47;;;8.97;;
6513;SDS011;3290;47.716;9.070;2023-06-22T09:18:27;16.57;;;8.10;;
6513;SDS011;3290;47.716;9.070;2023-06-22T09:20:52;19.43;;;8.33;;
6513;SDS011;3290;47.716;9.070;2023-06-22T09:23:18;15.63;;;8.57;;
6513;SDS011;3290;47.716;9.070;2023-06-22T09:25:43;15.20;;;8.03;;
6513;SDS011;3290;47.716;9.070;2023-06-22T09:28:09;19.73;;;9.90;;
6513;SDS011;3290;47.716;9.070;2023-06-22T09:30:34;18.47;;;8.60;;
6513;SDS011;3290;47.716;9.070;2023-06-22T09:32:59;19.20;;;8.77;;
6513;SDS011;3290;47.716;9.070;2023-06-22T09:35:26;22.83;;;8.80;;
6513;SDS011;3290;47.716;9.070;2023-06-22T09:37:51;20.77;;;9.00;;
6513;SDS011;3290;47.716;9.070;2023-06-22T09:40:17;15.63;;;8.17;;
6513;SDS011;3290;47.716;9.070;2023-06-22T09:42:42;23.67;;;7.30;;
6513;SDS011;3290;47.716;9.070;2023-06-22T09:45:08;13.33;;;7.30;;
6513;SDS011;3290;47.716;9.070;2023-06-22T09:47:33;14.10;;;8.00;;
6513;SDS011;3290;47.716;9.070;2023-06-22T09:49:59;14.37;;;6.00;;
6513;SDS011;3290;47.716;9.070;2023-06-22T09:52:24;17.40;;;8.30;;
6513;SDS011;3290;47.716;9.070;2023-06-22T09:54:50;14.57;;;7.43;;
6513;SDS011;3290;47.716;9.070;2023-06-22T09:57:15;16.13;;;6.63;;
6513;SDS011;3290;47.716;9.070;2023-06-22T09:59:41;18.83;;;6.20;;
6513;SDS011;3290;47.716;9.070;2023-06-22T10:02:06;14.17;;;6.73;;
6513;SDS011;3290;47.716;9.070;2023-06-22T10:04:33;16.53;;;8.33;;
6513;SDS011;3290;47.716;9.070;2023-06-22T10:06:59;12.17;;;6.30;;
6513;SDS011;3290;47.716;9.070;2023-06-22T10:09:24;14.23;;;7.43;;
6513;SDS011;3290;47.716;9.070;2023-06-22T10:11:49;19.73;;;7.73;;
6513;SDS011;3290;47.716;9.070;2023-06-22T10:14:15;17.40;;;7.40;;
6513;SDS011;3290;47.716;9.070;2023-06-22T10:16:41;11.63;;;6.67;;
6513;SDS011;3290;47.716;9.070;2023-06-22T10:19:07;19.00;;;8.17;;
6513;SDS011;3290;47.716;9.070;2023-06-22T10:21:32;16.43;;;8.10;;
6513;SDS011;3290;47.716;9.070;2023-06-22T10:23:59;14.17;;;7.47;;
6513;SDS011;3290;47.716;9.070;2023-06-22T10:26:30;15.70;;;8.07;;
6513;SDS011;3290;47.716;9.070;2023-06-22T10:28:56;13.97;;;7.03;;
6513;SDS011;3290;47.716;9.070;2023-06-22T10:31:21;18.73;;;8.50;;
6513;SDS011;3290;47.716;9.070;2023-06-22T10:33:47;16.10;;;7.53;;
6513;SDS011;3290;47.716;9.070;2023-06-22T10:36:14;19.33;;;7.37;;
6513;SDS011;3290;47.716;9.070;2023-06-22T10:38:40;12.07;;;7.10;;
6513;SDS011;3290;47.716;9.070;2023-06-22T10:41:05;15.80;;;7.17;;
6513;SDS011;3290;47.716;9.070;2023-06-22T10:43:30;9.50;;;6.50;;
6513;SDS011;3290;47.716;9.070;2023-06-22T10:45:56;11.57;;;6.83;;
6513;SDS011;3290;47.716;9.070;2023-06-22T10:48:21;16.10;;;7.93;;
6513;SDS011;3290;47.716;9.070;2023-06-22T10:50:46;13.40;;;6.60;;
6513;SDS011;3290;47.716;9.070;2023-06-22T10:53:12;16.93;;;8.43;;
6513;SDS011;3290;47.716;9.070;2023-06-22T10:55:37;25.90;;;7.40;;
6513;SDS011;3290;47.716;9.070;2023-06-22T10:58:02;15.37;;;7.23;;
6513;SDS011;3290;47.716;9.070;2023-06-22T11:00:28;14.13;;;6.20;;
6513;SDS011;3290;47.716;9.070;2023-06-22T11:02:53;14.60;;;7.60;;
6513;SDS011;3290;47.716;9.070;2023-06-22T11:05:19;11.17;;;7.27;;
6513;SDS011;3290;47.716;9.070;2023-06-22T11:07:44;15.40;;;7.93;;
6513;SDS011;3290;47.716;9.070;2023-06-22T11:10:10;15.33;;;8.00;;
6513;SDS011;3290;47.716;9.070;2023-06-22T11:12:36;13.30;;;7.33;;
6513;SDS011;3290;47.716;9.070;2023-06-22T11:15:01;22.90;;;7.63;;
6513;SDS011;3290;47.716;9.070;2023-06-22T11:17:27;16.00;;;7.43;;
6513;SDS011;3290;47.716;9.070;2023-06-22T11:19:52;14.10;;;7.83;;
6513;SDS011;3290;47.716;9.070;2023-06-22T11:22:17;13.70;;;6.83;;
6513;SDS011;3290;47.716;9.070;2023-06-22T11:24:43;11.67;;;6.57;;
6513;SDS011;3290;47.716;9.070;2023-06-22T11:27:08;15.00;;;7.40;;
6513;SDS011;3290;47.716;9.070;2023-06-22T11:29:33;22.73;;;8.80;;
6513;SDS011;3290;47.716;9.070;2023-06-22T11:31:59;18.43;;;7.77;;
6513;SDS011;3290;47.716;9.070;2023-06-22T11:34:24;11.60;;;6.50;;
6513;SDS011;3290;47.716;9.070;2023-06-22T11:36:49;13.20;;;7.10;;
6513;SDS011;3290;47.716;9.070;2023-06-22T11:39:15;23.37;;;7.37;;
6513;SDS011;3290;47.716;9.070;2023-06-22T11:41:40;16.27;;;6.90;;
6513;SDS011;3290;47.716;9.070;2023-06-22T11:44:07;16.13;;;8.30;;
6513;SDS011;3290;47.716;9.070;2023-06-22T11:46:32;17.00;;;7.70;;
6513;SDS011;3290;47.716;9.070;2023-06-22T11:48:58;19.30;;;7.40;;
6513;SDS011;3290;47.716;9.070;2023-06-22T11:51:23;14.80;;;7.57;;
6513;SDS011;3290;47.716;9.070;2023-06-22T11:53:48;17.23;;;8.17;;
6513;SDS011;3290;47.716;9.070;2023-06-22T11:56:14;13.37;;;7.00;;
6513;SDS011;3290;47.716;9.070;2023-06-22T11:58:39;14.13;;;7.63;;
6513;SDS011;3290;47.716;9.070;2023-06-22T12:01:04;18.60;;;7.70;;
6513;SDS011;3290;47.716;9.070;2023-06-22T12:03:30;18.40;;;7.13;;
6513;SDS011;3290;47.716;9.070;2023-06-22T12:05:55;18.03;;;6.87;;
6513;SDS011;3290;47.716;9.070;2023-06-22T12:08:21;33.47;;;7.73;;
6513;SDS011;3290;47.716;9.070;2023-06-22T12:10:47;13.37;;;7.13;;
6513;SDS011;3290;47.716;9.070;2023-06-22T12:13:12;11.60;;;7.63;;
6513;SDS011;3290;47.716;9.070;2023-06-22T12:15:38;15.50;;;6.60;;
6513;SDS011;3290;47.716;9.070;2023-06-22T12:18:03;12.90;;;7.60;;
6513;SDS011;3290;47.716;9.070;2023-06-22T12:20:29;17.43;;;8.00;;
6513;SDS011;3290;47.716;9.070;2023-06-22T12:22:54;15.73;;;7.17;;
6513;SDS011;3290;47.716;9.070;2023-06-22T12:25:21;15.20;;;6.57;;
6513;SDS011;3290;47.716;9.070;2023-06-22T12:27:47;19.30;;;7.63;;
6513;SDS011;3290;47.716;9.070;2023-06-22T12:30:12;16.50;;;7.93;;
6513;SDS011;3290;47.716;9.070;2023-06-22T12:32:38;14.80;;;7.70;;
6513;SDS011;3290;47.716;9.070;2023-06-22T12:35:03;21.53;;;7.27;;
6513;SDS011;3290;47.716;9.070;2023-06-22T12:37:29;17.00;;;6.30;;
6513;SDS011;3290;47.716;9.070;2023-06-22T12:39:56;19.93;;;7.37;;
6513;SDS011;3290;47.716;9.070;2023-06-22T12:42:22;11.10;;;5.97;;
6513;SDS011;3290;47.716;9.070;2023-06-22T12:44:47;15.47;;;7.33;;
6513;SDS011;3290;47.716;9.070;2023-06-22T12:47:12;13.07;;;6.50;;
6513;SDS011;3290;47.716;9.070;2023-06-22T12:49:38;18.93;;;7.10;;
6513;SDS011;3290;47.716;9.070;2023-06-22T12:52:08;16.77;;;7.17;;
6513;SDS011;3290;47.716;9.070;2023-06-22T12:54:35;13.50;;;7.10;;
6513;SDS011;3290;47.716;9.070;2023-06-22T12:57:01;13.37;;;6.70;;
6513;SDS011;3290;47.716;9.070;2023-06-22T12:59:26;11.30;;;6.60;;
6513;SDS011;3290;47.716;9.070;2023-06-22T13:01:51;18.30;;;7.20;;
6513;SDS011;3290;47.716;9.070;2023-06-22T13:04:17;14.00;;;6.97;;
6513;SDS011;3290;47.716;9.070;2023-06-22T13:06:44;22.33;;;7.90;;
6513;SDS011;3290;47.716;9.070;2023-06-22T13:09:12;11.40;;;7.20;;
6513;SDS011;3290;47.716;9.070;2023-06-22T13:11:44;12.00;;;7.57;;
6513;SDS011;3290;47.716;9.070;2023-06-22T13:14:09;11.37;;;7.10;;
6513;SDS011;3290;47.716;9.070;2023-06-22T13:16:35;18.10;;;7.10;;
6513;SDS011;3290;47.716;9.070;2023-06-22T13:19:00;19.97;;;6.93;;
6513;SDS011;3290;47.716;9.070;2023-06-22T13:21:26;17.00;;;6.30;;
6513;SDS011;3290;47.716;9.070;2023-06-22T13:23:51;17.83;;;7.37;;
6513;SDS011;3290;47.716;9.070;2023-06-22T13:26:16;13.00;;;6.63;;
6513;SDS011;3290;47.716;9.070;2023-06-22T13:28:42;17.17;;;6.53;;
6513;SDS011;3290;47.716;9.070;2023-06-22T13:31:07;16.20;;;7.50;;
6513;SDS011;3290;47.716;9.070;2023-06-22T13:33:33;25.03;;;7.40;;
6513;SDS011;3290;47.716;9.070;2023-06-22T13:35:58;15.50;;;7.47;;
6513;SDS011;3290;47.716;9.070;2023-06-22T13:38:23;14.00;;;7.50;;
6513;SDS011;3290;47.716;9.070;2023-06-22T13:40:49;19.70;;;8.50;;
6513;SDS011;3290;47.716;9.070;2023-06-22T13:43:15;17.17;;;8.83;;
6513;SDS011;3290;47.716;9.070;2023-06-22T13:45:41;14.63;;;8.13;;
6513;SDS011;3290;47.716;9.070;2023-06-22T13:48:07;13.93;;;7.83;;
6513;SDS011;3290;47.716;9.070;2023-06-22T13:50:32;16.07;;;9.40;;
6513;SDS011;3290;47.716;9.070;2023-06-22T13:52:58;11.63;;;7.20;;
6513;SDS011;3290;47.716;9.070;2023-06-22T13:55:23;13.20;;;7.57;;
6513;SDS011;3290;47.716;9.070;2023-06-22T13:57:49;14.83;;;7.10;;
6513;SDS011;3290;47.716;9.070;2023-06-22T14:00:14;15.10;;;7.90;;
6513;SDS011;3290;47.716;9.070;2023-06-22T14:02:40;16.20;;;7.03;;
6513;SDS011;3290;47.716;9.070;2023-06-22T14:05:06;15.60;;;7.57;;
6513;SDS011;3290;47.716;9.070;2023-06-22T14:07:32;22.57;;;7.80;;
6513;SDS011;3290;47.716;9.070;2023-06-22T14:09:57;12.90;;;7.57;;
6513;SDS011;3290;47.716;9.070;2023-06-22T14:12:23;14.03;;;6.87;;
6513;SDS011;3290;47.716;9.070;2023-06-22T14:14:49;14.87;;;4.57;;
6513;SDS011;3290;47.716;9.070;2023-06-22T14:17:14;8.60;;;3.90;;
6513;SDS011;3290;47.716;9.070;2023-06-22T14:19:40;12.70;;;4.20;;
6513;SDS011;3290;47.716;9.070;2023-06-22T14:22:05;12.90;;;3.80;;
6513;SDS011;3290;47.716;9.070;2023-06-22T14:24:30;14.60;;;3.40;;
6513;SDS011;3290;47.716;9.070;2023-06-22T14:26:56;15.57;;;4.60;;
6513;SDS011;3290;47.716;9.070;2023-06-22T14:29:21;8.70;;;4.57;;
6513;SDS011;3290;47.716;9.070;2023-06-22T14:31:47;12.37;;;4.43;;
6513;SDS011;3290;47.716;9.070;2023-06-22T14:34:14;8.93;;;4.03;;
6513;SDS011;3290;47.716;9.070;2023-06-22T14:36:40;16.47;;;3.87;;
6513;SDS011;3290;47.716;9.070;2023-06-22T14:39:05;13.50;;;3.83;;
6513;SDS011;3290;47.716;9.070;2023-06-22T14:41:30;8.90;;;4.07;;
6513;SDS011;3290;47.716;9.070;2023-06-22T14:43:56;8.77;;;3.90;;
6513;SDS011;3290;47.716;9.070;2023-06-22T14:46:22;9.13;;;3.80;;
6513;SDS011;3290;47.716;9.070;2023-06-22T14:48:47;9.30;;;4.20;;
6513;SDS011;3290;47.716;9.070;2023-06-22T14:51:13;13.57;;;3.60;;
6513;SDS011;3290;47.716;9.070;2023-06-22T14:53:39;11.33;;;4.00;;
6513;SDS011;3290;47.716;9.070;2023-06-22T14:56:04;12.90;;;4.47;;
6513;SDS011;3290;47.716;9.070;2023-06-22T14:58:31;9.33;;;3.83;;
6513;SDS011;3290;47.716;9.070;2023-06-22T15:01:00;14.87;;;4.50;;